CYB weather

Gerrard Smith International Airport
Cayman Brac, Cayman Islands

Public forecast

Using degrees Celsius for public forecast. Weather courtesy of forecast.io.

METAR (pilot weather report)

Retrieved 2019/03/21 00:00 UTC (1 hour ago):

MWCB 210000Z 24009KT 9999 FEW022 26/22 Q1013

TAF (pilot weather forecast)

Forecast is more than 6 hours old.

Retrieved 2019/03/20 18:09 UTC (7 hours ago):

TAF TAF MWCB 210000Z 2018/2118 CNL